sensor_id;sensor_type;location;lat;lon;timestamp;P1;durP1;ratioP1;P2;durP2;ratioP2
4428;SDS011;2227;47.810;8.810;2022-12-07T04:47:42;31.40;;;15.45;;
4428;SDS011;2227;47.810;8.810;2022-12-07T04:50:09;28.75;;;15.13;;
4428;SDS011;2227;47.810;8.810;2022-12-07T04:52:36;30.52;;;14.55;;
4428;SDS011;2227;47.810;8.810;2022-12-07T04:55:02;30.52;;;15.10;;
4428;SDS011;2227;47.810;8.810;2022-12-07T04:57:29;28.67;;;14.85;;
4428;SDS011;2227;47.810;8.810;2022-12-07T04:59:56;34.42;;;16.38;;
4428;SDS011;2227;47.810;8.810;2022-12-07T05:02:22;31.38;;;14.95;;
4428;SDS011;2227;47.810;8.810;2022-12-07T05:04:49;29.40;;;15.35;;
4428;SDS011;2227;47.810;8.810;2022-12-07T05:07:16;34.40;;;16.70;;
4428;SDS011;2227;47.810;8.810;2022-12-07T05:09:42;30.35;;;14.90;;
4428;SDS011;2227;47.810;8.810;2022-12-07T05:12:09;31.25;;;14.18;;
4428;SDS011;2227;47.810;8.810;2022-12-07T05:14:36;30.92;;;14.93;;
4428;SDS011;2227;47.810;8.810;2022-12-07T05:17:02;30.25;;;14.90;;
4428;SDS011;2227;47.810;8.810;2022-12-07T05:19:30;31.70;;;14.15;;
4428;SDS011;2227;47.810;8.810;2022-12-07T05:21:56;30.02;;;14.73;;
4428;SDS011;2227;47.810;8.810;2022-12-07T05:24:23;30.42;;;14.82;;
4428;SDS011;2227;47.810;8.810;2022-12-07T05:26:50;34.83;;;15.73;;
4428;SDS011;2227;47.810;8.810;2022-12-07T05:29:17;31.27;;;15.05;;
4428;SDS011;2227;47.810;8.810;2022-12-07T05:31:43;29.67;;;14.70;;
4428;SDS011;2227;47.810;8.810;2022-12-07T05:34:11;30.75;;;15.20;;
4428;SDS011;2227;47.810;8.810;2022-12-07T05:36:38;31.65;;;13.73;;
4428;SDS011;2227;47.810;8.810;2022-12-07T05:39:05;28.35;;;15.63;;
4428;SDS011;2227;47.810;8.810;2022-12-07T05:41:31;28.10;;;14.88;;
4428;SDS011;2227;47.810;8.810;2022-12-07T05:44:17;29.77;;;14.77;;
4428;SDS011;2227;47.810;8.810;2022-12-07T05:46:44;27.25;;;13.30;;
4428;SDS011;2227;47.810;8.810;2022-12-07T05:49:11;27.98;;;12.68;;
4428;SDS011;2227;47.810;8.810;2022-12-07T05:51:37;28.75;;;14.43;;
4428;SDS011;2227;47.810;8.810;2022-12-07T05:54:04;26.52;;;13.63;;
4428;SDS011;2227;47.810;8.810;2022-12-07T05:56:31;25.85;;;12.60;;
4428;SDS011;2227;47.810;8.810;2022-12-07T05:58:57;23.92;;;13.38;;
4428;SDS011;2227;47.810;8.810;2022-12-07T06:01:43;25.92;;;14.45;;
4428;SDS011;2227;47.810;8.810;2022-12-07T06:04:10;27.10;;;13.70;;
4428;SDS011;2227;47.810;8.810;2022-12-07T06:06:36;25.83;;;13.98;;
4428;SDS011;2227;47.810;8.810;2022-12-07T06:09:03;25.73;;;14.15;;
4428;SDS011;2227;47.810;8.810;2022-12-07T06:11:30;27.30;;;13.57;;
4428;SDS011;2227;47.810;8.810;2022-12-07T06:14:15;26.48;;;14.65;;
4428;SDS011;2227;47.810;8.810;2022-12-07T06:16:42;27.10;;;14.68;;
4428;SDS011;2227;47.810;8.810;2022-12-07T06:19:09;29.65;;;14.85;;
4428;SDS011;2227;47.810;8.810;2022-12-07T06:21:36;28.83;;;14.27;;
4428;SDS011;2227;47.810;8.810;2022-12-07T06:24:02;29.45;;;15.60;;
4428;SDS011;2227;47.810;8.810;2022-12-07T06:26:29;31.42;;;16.55;;
4428;SDS011;2227;47.810;8.810;2022-12-07T06:28:56;30.85;;;16.85;;
4428;SDS011;2227;47.810;8.810;2022-12-07T06:31:23;30.13;;;16.15;;
4428;SDS011;2227;47.810;8.810;2022-12-07T06:33:50;28.40;;;15.23;;
4428;SDS011;2227;47.810;8.810;2022-12-07T06:36:17;31.00;;;15.32;;
4428;SDS011;2227;47.810;8.810;2022-12-07T06:38:50;27.33;;;14.25;;
4428;SDS011;2227;47.810;8.810;2022-12-07T06:41:17;32.60;;;16.20;;
4428;SDS011;2227;47.810;8.810;2022-12-07T06:43:44;33.47;;;17.13;;
4428;SDS011;2227;47.810;8.810;2022-12-07T06:46:10;32.75;;;16.00;;
4428;SDS011;2227;47.810;8.810;2022-12-07T06:48:37;32.03;;;17.48;;
4428;SDS011;2227;47.810;8.810;2022-12-07T06:51:04;30.13;;;16.38;;
4428;SDS011;2227;47.810;8.810;2022-12-07T06:53:30;34.78;;;17.65;;
4428;SDS011;2227;47.810;8.810;2022-12-07T06:55:57;32.72;;;15.80;;
4428;SDS011;2227;47.810;8.810;2022-12-07T06:58:24;34.15;;;17.17;;
4428;SDS011;2227;47.810;8.810;2022-12-07T07:00:51;33.60;;;17.40;;
4428;SDS011;2227;47.810;8.810;2022-12-07T07:03:18;35.95;;;18.80;;
4428;SDS011;2227;47.810;8.810;2022-12-07T07:05:45;36.03;;;18.52;;
4428;SDS011;2227;47.810;8.810;2022-12-07T07:08:11;31.83;;;17.48;;
4428;SDS011;2227;47.810;8.810;2022-12-07T07:10:48;34.05;;;16.23;;
4428;SDS011;2227;47.810;8.810;2022-12-07T07:13:14;34.25;;;18.85;;
4428;SDS011;2227;47.810;8.810;2022-12-07T07:15:41;33.55;;;18.10;;
4428;SDS011;2227;47.810;8.810;2022-12-07T07:18:08;35.35;;;18.38;;
4428;SDS011;2227;47.810;8.810;2022-12-07T07:20:35;35.13;;;18.05;;
4428;SDS011;2227;47.810;8.810;2022-12-07T07:23:02;34.33;;;19.17;;
4428;SDS011;2227;47.810;8.810;2022-12-07T07:25:29;33.50;;;17.10;;
4428;SDS011;2227;47.810;8.810;2022-12-07T07:27:56;35.58;;;17.33;;
4428;SDS011;2227;47.810;8.810;2022-12-07T07:30:22;30.70;;;16.95;;
4428;SDS011;2227;47.810;8.810;2022-12-07T07:32:50;38.60;;;19.25;;
4428;SDS011;2227;47.810;8.810;2022-12-07T07:35:16;38.35;;;18.92;;
4428;SDS011;2227;47.810;8.810;2022-12-07T07:37:43;35.15;;;18.70;;
4428;SDS011;2227;47.810;8.810;2022-12-07T07:40:10;33.42;;;17.65;;
4428;SDS011;2227;47.810;8.810;2022-12-07T07:42:37;36.85;;;17.48;;
4428;SDS011;2227;47.810;8.810;2022-12-07T07:45:04;39.38;;;18.85;;
4428;SDS011;2227;47.810;8.810;2022-12-07T07:47:31;36.15;;;19.45;;
4428;SDS011;2227;47.810;8.810;2022-12-07T07:49:57;35.60;;;17.98;;
4428;SDS011;2227;47.810;8.810;2022-12-07T07:52:24;32.50;;;17.80;;
4428;SDS011;2227;47.810;8.810;2022-12-07T07:54:51;37.85;;;18.85;;
4428;SDS011;2227;47.810;8.810;2022-12-07T07:57:17;29.38;;;17.38;;
4428;SDS011;2227;47.810;8.810;2022-12-07T07:59:44;36.42;;;18.30;;
4428;SDS011;2227;47.810;8.810;2022-12-07T08:02:15;35.70;;;17.33;;
4428;SDS011;2227;47.810;8.810;2022-12-07T08:04:43;31.70;;;16.75;;
4428;SDS011;2227;47.810;8.810;2022-12-07T08:07:11;31.67;;;17.17;;
4428;SDS011;2227;47.810;8.810;2022-12-07T08:09:38;33.13;;;18.35;;
4428;SDS011;2227;47.810;8.810;2022-12-07T08:12:05;36.97;;;19.83;;
4428;SDS011;2227;47.810;8.810;2022-12-07T08:14:32;41.03;;;20.75;;
4428;SDS011;2227;47.810;8.810;2022-12-07T08:17:00;33.45;;;17.15;;
4428;SDS011;2227;47.810;8.810;2022-12-07T08:19:27;32.05;;;16.77;;
4428;SDS011;2227;47.810;8.810;2022-12-07T08:21:53;32.35;;;16.88;;
4428;SDS011;2227;47.810;8.810;2022-12-07T08:24:22;32.65;;;16.80;;
4428;SDS011;2227;47.810;8.810;2022-12-07T08:26:50;32.95;;;17.40;;
4428;SDS011;2227;47.810;8.810;2022-12-07T08:29:17;29.17;;;16.00;;
4428;SDS011;2227;47.810;8.810;2022-12-07T08:31:44;27.73;;;16.27;;
4428;SDS011;2227;47.810;8.810;2022-12-07T08:34:11;34.42;;;17.42;;
4428;SDS011;2227;47.810;8.810;2022-12-07T08:36:39;38.45;;;19.10;;
4428;SDS011;2227;47.810;8.810;2022-12-07T08:39:06;36.38;;;19.83;;
4428;SDS011;2227;47.810;8.810;2022-12-07T08:41:52;35.72;;;19.52;;
4428;SDS011;2227;47.810;8.810;2022-12-07T08:44:19;39.78;;;20.00;;
4428;SDS011;2227;47.810;8.810;2022-12-07T08:46:47;32.50;;;17.58;;
4428;SDS011;2227;47.810;8.810;2022-12-07T08:49:22;34.83;;;18.30;;
4428;SDS011;2227;47.810;8.810;2022-12-07T08:51:53;33.20;;;17.55;;
4428;SDS011;2227;47.810;8.810;2022-12-07T08:54:21;27.45;;;16.48;;
4428;SDS011;2227;47.810;8.810;2022-12-07T08:56:48;30.35;;;16.95;;
4428;SDS011;2227;47.810;8.810;2022-12-07T08:59:24;31.23;;;17.08;;
4428;SDS011;2227;47.810;8.810;2022-12-07T09:01:51;29.85;;;15.35;;
4428;SDS011;2227;47.810;8.810;2022-12-07T09:04:18;28.60;;;15.73;;
4428;SDS011;2227;47.810;8.810;2022-12-07T09:06:46;26.25;;;14.88;;
4428;SDS011;2227;47.810;8.810;2022-12-07T09:09:13;28.80;;;16.27;;
4428;SDS011;2227;47.810;8.810;2022-12-07T09:11:40;29.08;;;15.65;;
4428;SDS011;2227;47.810;8.810;2022-12-07T09:14:07;25.67;;;15.48;;
4428;SDS011;2227;47.810;8.810;2022-12-07T09:16:34;26.42;;;15.48;;
4428;SDS011;2227;47.810;8.810;2022-12-07T09:19:01;26.40;;;15.20;;
4428;SDS011;2227;47.810;8.810;2022-12-07T09:21:27;25.27;;;14.65;;
4428;SDS011;2227;47.810;8.810;2022-12-07T09:23:54;25.88;;;13.82;;
4428;SDS011;2227;47.810;8.810;2022-12-07T09:26:21;22.60;;;13.60;;
4428;SDS011;2227;47.810;8.810;2022-12-07T09:28:47;22.73;;;12.82;;
4428;SDS011;2227;47.810;8.810;2022-12-07T09:31:14;20.52;;;11.90;;
4428;SDS011;2227;47.810;8.810;2022-12-07T09:33:58;21.23;;;12.48;;
4428;SDS011;2227;47.810;8.810;2022-12-07T09:36:26;20.95;;;12.20;;
4428;SDS011;2227;47.810;8.810;2022-12-07T09:38:54;18.90;;;11.50;;
4428;SDS011;2227;47.810;8.810;2022-12-07T09:41:21;21.00;;;11.55;;
4428;SDS011;2227;47.810;8.810;2022-12-07T09:43:49;19.48;;;11.82;;
4428;SDS011;2227;47.810;8.810;2022-12-07T09:46:17;20.65;;;11.00;;
4428;SDS011;2227;47.810;8.810;2022-12-07T09:48:46;18.73;;;11.20;;
4428;SDS011;2227;47.810;8.810;2022-12-07T09:51:17;20.80;;;11.27;;
4428;SDS011;2227;47.810;8.810;2022-12-07T09:53:51;19.50;;;10.82;;
4428;SDS011;2227;47.810;8.810;2022-12-07T09:56:20;14.65;;;9.25;;
4428;SDS011;2227;47.810;8.810;2022-12-07T09:58:48;13.35;;;8.23;;
4428;SDS011;2227;47.810;8.810;2022-12-07T10:01:17;12.55;;;8.02;;
4428;SDS011;2227;47.810;8.810;2022-12-07T10:03:52;14.30;;;7.75;;
4428;SDS011;2227;47.810;8.810;2022-12-07T10:06:52;11.60;;;8.07;;
4428;SDS011;2227;47.810;8.810;2022-12-07T10:09:20;13.05;;;7.90;;
4428;SDS011;2227;47.810;8.810;2022-12-07T10:12:00;11.68;;;7.05;;
4428;SDS011;2227;47.810;8.810;2022-12-07T10:14:31;13.25;;;6.55;;
4428;SDS011;2227;47.810;8.810;2022-12-07T10:17:41;11.55;;;6.10;;
4428;SDS011;2227;47.810;8.810;2022-12-07T10:23:19;9.60;;;6.30;;
4428;SDS011;2227;47.810;8.810;2022-12-07T10:25:41;11.02;;;6.72;;
4428;SDS011;2227;47.810;8.810;2022-12-07T10:30:52;7.68;;;4.53;;
4428;SDS011;2227;47.810;8.810;2022-12-07T10:36:01;8.80;;;5.60;;
4428;SDS011;2227;47.810;8.810;2022-12-07T10:38:45;6.25;;;3.20;;
4428;SDS011;2227;47.810;8.810;2022-12-07T10:41:17;4.07;;;2.58;;
4428;SDS011;2227;47.810;8.810;2022-12-07T10:43:48;4.18;;;2.85;;
4428;SDS011;2227;47.810;8.810;2022-12-07T10:46:39;6.23;;;2.97;;
4428;SDS011;2227;47.810;8.810;2022-12-07T10:49:47;4.35;;;2.45;;
4428;SDS011;2227;47.810;8.810;2022-12-07T10:52:34;6.45;;;2.92;;
4428;SDS011;2227;47.810;8.810;2022-12-07T11:17:49;7.90;;;4.28;;
4428;SDS011;2227;47.810;8.810;2022-12-07T11:23:12;6.38;;;3.83;;
4428;SDS011;2227;47.810;8.810;2022-12-07T11:28:47;6.65;;;4.43;;
4428;SDS011;2227;47.810;8.810;2022-12-07T11:34:21;8.55;;;6.13;;
4428;SDS011;2227;47.810;8.810;2022-12-07T11:36:52;9.15;;;5.30;;
4428;SDS011;2227;47.810;8.810;2022-12-07T11:39:36;7.88;;;4.80;;
4428;SDS011;2227;47.810;8.810;2022-12-07T11:42:15;9.00;;;4.32;;
4428;SDS011;2227;47.810;8.810;2022-12-07T11:44:55;8.50;;;3.92;;
4428;SDS011;2227;47.810;8.810;2022-12-07T11:47:38;17.85;;;4.82;;
4428;SDS011;2227;47.810;8.810;2022-12-07T11:50:25;15.38;;;4.88;;
4428;SDS011;2227;47.810;8.810;2022-12-07T11:52:58;6.72;;;3.80;;
4428;SDS011;2227;47.810;8.810;2022-12-07T11:55:41;6.22;;;3.20;;
4428;SDS011;2227;47.810;8.810;2022-12-07T12:00:55;6.20;;;4.28;;
4428;SDS011;2227;47.810;8.810;2022-12-07T12:03:35;4.50;;;3.05;;
4428;SDS011;2227;47.810;8.810;2022-12-07T12:06:14;14.70;;;6.68;;
4428;SDS011;2227;47.810;8.810;2022-12-07T12:23:07;5.13;;;2.72;;
4428;SDS011;2227;47.810;8.810;2022-12-07T12:25:40;7.32;;;4.32;;
4428;SDS011;2227;47.810;8.810;2022-12-07T12:32:04;12.85;;;4.05;;
4428;SDS011;2227;47.810;8.810;2022-12-07T12:33:55;7.18;;;3.05;;
4428;SDS011;2227;47.810;8.810;2022-12-07T12:39:12;9.50;;;2.97;;
4428;SDS011;2227;47.810;8.810;2022-12-07T12:54:57;5.15;;;3.00;;
4428;SDS011;2227;47.810;8.810;2022-12-07T12:57:37;6.50;;;2.70;;
4428;SDS011;2227;47.810;8.810;2022-12-07T13:02:54;5.17;;;2.80;;
4428;SDS011;2227;47.810;8.810;2022-12-07T13:05:23;5.88;;;3.13;;
4428;SDS011;2227;47.810;8.810;2022-12-07T13:13:03;6.25;;;3.95;;
4428;SDS011;2227;47.810;8.810;2022-12-07T13:15:31;5.60;;;3.20;;
4428;SDS011;2227;47.810;8.810;2022-12-07T13:18:00;5.82;;;3.25;;
4428;SDS011;2227;47.810;8.810;2022-12-07T13:20:46;5.38;;;3.30;;
4428;SDS011;2227;47.810;8.810;2022-12-07T13:23:24;5.45;;;3.30;;
4428;SDS011;2227;47.810;8.810;2022-12-07T13:34:31;5.93;;;3.00;;
4428;SDS011;2227;47.810;8.810;2022-12-07T13:37:10;5.85;;;3.28;;
4428;SDS011;2227;47.810;8.810;2022-12-07T13:40:20;5.30;;;2.80;;
4428;SDS011;2227;47.810;8.810;2022-12-07T13:42:56;6.45;;;3.45;;
4428;SDS011;2227;47.810;8.810;2022-12-07T13:45:38;6.07;;;3.00;;
4428;SDS011;2227;47.810;8.810;2022-12-07T13:51:16;5.40;;;3.40;;
4428;SDS011;2227;47.810;8.810;2022-12-07T13:53:46;5.75;;;3.10;;
4428;SDS011;2227;47.810;8.810;2022-12-07T13:56:17;7.93;;;3.72;;
4428;SDS011;2227;47.810;8.810;2022-12-07T13:58:44;7.10;;;3.33;;
4428;SDS011;2227;47.810;8.810;2022-12-07T14:01:11;7.80;;;3.60;;
4428;SDS011;2227;47.810;8.810;2022-12-07T14:03:39;9.23;;;4.05;;
4428;SDS011;2227;47.810;8.810;2022-12-07T14:09:14;8.55;;;3.72;;
4428;SDS011;2227;47.810;8.810;2022-12-07T14:11:45;6.10;;;3.65;;
4428;SDS011;2227;47.810;8.810;2022-12-07T14:14:16;9.05;;;4.43;;
4428;SDS011;2227;47.810;8.810;2022-12-07T14:19:51;6.30;;;3.15;;
4428;SDS011;2227;47.810;8.810;2022-12-07T14:22:23;6.68;;;3.60;;
4428;SDS011;2227;47.810;8.810;2022-12-07T14:25:26;8.23;;;3.63;;
4428;SDS011;2227;47.810;8.810;2022-12-07T14:27:48;6.80;;;3.33;;
4428;SDS011;2227;47.810;8.810;2022-12-07T14:30:17;7.50;;;4.00;;
4428;SDS011;2227;47.810;8.810;2022-12-07T14:32:44;6.97;;;3.92;;
4428;SDS011;2227;47.810;8.810;2022-12-07T14:35:15;8.95;;;4.25;;
4428;SDS011;2227;47.810;8.810;2022-12-07T14:37:45;11.52;;;4.72;;
4428;SDS011;2227;47.810;8.810;2022-12-07T14:40:17;7.28;;;4.18;;
4428;SDS011;2227;47.810;8.810;2022-12-07T14:42:50;8.13;;;5.25;;
4428;SDS011;2227;47.810;8.810;2022-12-07T14:45:21;6.85;;;4.38;;
4428;SDS011;2227;47.810;8.810;2022-12-07T14:47:48;7.15;;;4.60;;
4428;SDS011;2227;47.810;8.810;2022-12-07T14:50:36;6.95;;;4.80;;
4428;SDS011;2227;47.810;8.810;2022-12-07T14:53:28;8.15;;;4.60;;
4428;SDS011;2227;47.810;8.810;2022-12-07T14:55:59;7.53;;;4.10;;
4428;SDS011;2227;47.810;8.810;2022-12-07T14:58:26;8.88;;;4.32;;
4428;SDS011;2227;47.810;8.810;2022-12-07T15:00:52;7.15;;;4.10;;
4428;SDS011;2227;47.810;8.810;2022-12-07T15:03:19;11.88;;;5.13;;
4428;SDS011;2227;47.810;8.810;2022-12-07T15:05:46;12.90;;;4.72;;
4428;SDS011;2227;47.810;8.810;2022-12-07T15:08:13;9.15;;;4.00;;
4428;SDS011;2227;47.810;8.810;2022-12-07T15:10:40;8.82;;;4.53;;
4428;SDS011;2227;47.810;8.810;2022-12-07T15:13:07;7.10;;;4.57;;
4428;SDS011;2227;47.810;8.810;2022-12-07T15:15:53;9.05;;;4.50;;
4428;SDS011;2227;47.810;8.810;2022-12-07T15:18:21;7.75;;;4.70;;
4428;SDS011;2227;47.810;8.810;2022-12-07T15:20:49;8.45;;;4.97;;
4428;SDS011;2227;47.810;8.810;2022-12-07T15:23:17;8.35;;;5.15;;
4428;SDS011;2227;47.810;8.810;2022-12-07T15:25:45;10.82;;;5.07;;
4428;SDS011;2227;47.810;8.810;2022-12-07T15:28:13;8.95;;;5.32;;
4428;SDS011;2227;47.810;8.810;2022-12-07T15:30:41;8.00;;;4.63;;
4428;SDS011;2227;47.810;8.810;2022-12-07T15:33:09;9.30;;;5.35;;
4428;SDS011;2227;47.810;8.810;2022-12-07T15:35:40;11.13;;;5.35;;
4428;SDS011;2227;47.810;8.810;2022-12-07T15:38:08;10.15;;;5.25;;
4428;SDS011;2227;47.810;8.810;2022-12-07T15:40:34;8.82;;;4.63;;
4428;SDS011;2227;47.810;8.810;2022-12-07T15:43:02;8.38;;;5.85;;
4428;SDS011;2227;47.810;8.810;2022-12-07T15:45:29;11.63;;;4.88;;
4428;SDS011;2227;47.810;8.810;2022-12-07T15:47:56;9.75;;;5.32;;
4428;SDS011;2227;47.810;8.810;2022-12-07T15:50:42;8.73;;;4.65;;
4428;SDS011;2227;47.810;8.810;2022-12-07T15:53:09;9.32;;;5.10;;
4428;SDS011;2227;47.810;8.810;2022-12-07T15:55:38;10.43;;;5.40;;
4428;SDS011;2227;47.810;8.810;2022-12-07T15:58:06;10.02;;;5.47;;
4428;SDS011;2227;47.810;8.810;2022-12-07T16:00:33;13.82;;;8.45;;
4428;SDS011;2227;47.810;8.810;2022-12-07T16:02:59;11.13;;;6.57;;
4428;SDS011;2227;47.810;8.810;2022-12-07T16:05:26;12.35;;;8.45;;
4428;SDS011;2227;47.810;8.810;2022-12-07T16:07:53;14.25;;;9.82;;
4428;SDS011;2227;47.810;8.810;2022-12-07T16:10:20;16.60;;;8.25;;
4428;SDS011;2227;47.810;8.810;2022-12-07T16:12:46;11.55;;;7.78;;
4428;SDS011;2227;47.810;8.810;2022-12-07T16:15:13;12.57;;;7.28;;
4428;SDS011;2227;47.810;8.810;2022-12-07T16:17:42;19.48;;;7.63;;
4428;SDS011;2227;47.810;8.810;2022-12-07T16:20:09;17.30;;;9.10;;
4428;SDS011;2227;47.810;8.810;2022-12-07T16:22:36;12.13;;;7.55;;
4428;SDS011;2227;47.810;8.810;2022-12-07T16:25:03;14.73;;;7.35;;
4428;SDS011;2227;47.810;8.810;2022-12-07T16:27:30;14.88;;;7.22;;
4428;SDS011;2227;47.810;8.810;2022-12-07T16:29:57;12.50;;;6.97;;
4428;SDS011;2227;47.810;8.810;2022-12-07T16:32:23;13.13;;;7.18;;
4428;SDS011;2227;47.810;8.810;2022-12-07T16:34:50;34.65;;;31.05;;
4428;SDS011;2227;47.810;8.810;2022-12-07T16:37:16;22.25;;;14.45;;
4428;SDS011;2227;47.810;8.810;2022-12-07T16:39:43;34.67;;;19.65;;
4428;SDS011;2227;47.810;8.810;2022-12-07T16:42:10;14.93;;;9.60;;
4428;SDS011;2227;47.810;8.810;2022-12-07T16:44:36;15.80;;;8.77;;
4428;SDS011;2227;47.810;8.810;2022-12-07T16:47:03;14.43;;;6.80;;
4428;SDS011;2227;47.810;8.810;2022-12-07T16:49:30;11.98;;;6.82;;
4428;SDS011;2227;47.810;8.810;2022-12-07T16:51:57;11.50;;;6.70;;
4428;SDS011;2227;47.810;8.810;2022-12-07T16:54:44;12.43;;;7.30;;
4428;SDS011;2227;47.810;8.810;2022-12-07T16:57:10;29.45;;;11.10;;
4428;SDS011;2227;47.810;8.810;2022-12-07T16:59:45;12.88;;;7.03;;
4428;SDS011;2227;47.810;8.810;2022-12-07T17:02:12;20.45;;;9.80;;
4428;SDS011;2227;47.810;8.810;2022-12-07T17:04:38;12.35;;;6.78;;
4428;SDS011;2227;47.810;8.810;2022-12-07T17:07:08;15.88;;;8.88;;
4428;SDS011;2227;47.810;8.810;2022-12-07T17:09:36;14.80;;;8.75;;
4428;SDS011;2227;47.810;8.810;2022-12-07T17:12:03;15.75;;;7.68;;
4428;SDS011;2227;47.810;8.810;2022-12-07T17:14:32;17.98;;;9.07;;
4428;SDS011;2227;47.810;8.810;2022-12-07T17:17:17;23.63;;;10.88;;
4428;SDS011;2227;47.810;8.810;2022-12-07T17:19:43;29.63;;;12.85;;
4428;SDS011;2227;47.810;8.810;2022-12-07T17:22:11;25.30;;;12.00;;
4428;SDS011;2227;47.810;8.810;2022-12-07T17:24:38;22.27;;;11.27;;
4428;SDS011;2227;47.810;8.810;2022-12-07T17:27:05;24.95;;;14.15;;
4428;SDS011;2227;47.810;8.810;2022-12-07T17:29:32;38.83;;;24.38;;
4428;SDS011;2227;47.810;8.810;2022-12-07T17:31:58;38.80;;;22.27;;
4428;SDS011;2227;47.810;8.810;2022-12-07T17:34:25;29.45;;;16.08;;
4428;SDS011;2227;47.810;8.810;2022-12-07T17:36:52;32.00;;;18.90;;
4428;SDS011;2227;47.810;8.810;2022-12-07T17:39:20;32.60;;;17.77;;
4428;SDS011;2227;47.810;8.810;2022-12-07T17:41:47;179.52;;;72.43;;
4428;SDS011;2227;47.810;8.810;2022-12-07T17:44:32;65.72;;;34.70;;
4428;SDS011;2227;47.810;8.810;2022-12-07T17:46:59;76.35;;;42.38;;
4428;SDS011;2227;47.810;8.810;2022-12-07T17:49:28;34.90;;;19.80;;
4428;SDS011;2227;47.810;8.810;2022-12-07T17:51:55;25.35;;;15.43;;
4428;SDS011;2227;47.810;8.810;2022-12-07T17:54:41;21.85;;;13.75;;
4428;SDS011;2227;47.810;8.810;2022-12-07T17:57:08;33.25;;;16.02;;
4428;SDS011;2227;47.810;8.810;2022-12-07T17:59:34;25.40;;;12.20;;
4428;SDS011;2227;47.810;8.810;2022-12-07T18:02:01;21.02;;;11.27;;
4428;SDS011;2227;47.810;8.810;2022-12-07T18:04:28;19.55;;;12.07;;
4428;SDS011;2227;47.810;8.810;2022-12-07T18:06:55;23.88;;;12.05;;
4428;SDS011;2227;47.810;8.810;2022-12-07T18:09:21;30.65;;;16.95;;
4428;SDS011;2227;47.810;8.810;2022-12-07T18:11:48;29.85;;;13.15;;
4428;SDS011;2227;47.810;8.810;2022-12-07T18:14:15;25.15;;;14.82;;
4428;SDS011;2227;47.810;8.810;2022-12-07T18:16:43;18.73;;;12.70;;
4428;SDS011;2227;47.810;8.810;2022-12-07T18:19:10;24.80;;;13.85;;
4428;SDS011;2227;47.810;8.810;2022-12-07T18:21:40;21.27;;;12.80;;
4428;SDS011;2227;47.810;8.810;2022-12-07T18:24:07;22.20;;;12.00;;
4428;SDS011;2227;47.810;8.810;2022-12-07T18:26:38;22.38;;;12.55;;
4428;SDS011;2227;47.810;8.810;2022-12-07T18:29:06;18.80;;;11.88;;
4428;SDS011;2227;47.810;8.810;2022-12-07T18:31:34;21.02;;;14.60;;
4428;SDS011;2227;47.810;8.810;2022-12-07T18:34:02;20.90;;;14.07;;
4428;SDS011;2227;47.810;8.810;2022-12-07T18:36:33;21.10;;;14.15;;
4428;SDS011;2227;47.810;8.810;2022-12-07T18:39:05;27.92;;;16.73;;
4428;SDS011;2227;47.810;8.810;2022-12-07T18:41:32;22.52;;;13.93;;
4428;SDS011;2227;47.810;8.810;2022-12-07T18:43:59;21.25;;;12.18;;
4428;SDS011;2227;47.810;8.810;2022-12-07T18:46:28;24.08;;;13.38;;
4428;SDS011;2227;47.810;8.810;2022-12-07T18:48:55;23.02;;;13.85;;
4428;SDS011;2227;47.810;8.810;2022-12-07T18:51:22;22.73;;;14.48;;
4428;SDS011;2227;47.810;8.810;2022-12-07T18:53:56;22.00;;;13.57;;
4428;SDS011;2227;47.810;8.810;2022-12-07T18:56:25;22.10;;;13.18;;
4428;SDS011;2227;47.810;8.810;2022-12-07T18:58:53;19.92;;;14.35;;
4428;SDS011;2227;47.810;8.810;2022-12-07T19:01:44;23.95;;;17.08;;
4428;SDS011;2227;47.810;8.810;2022-12-07T19:04:13;22.40;;;15.57;;
4428;SDS011;2227;47.810;8.810;2022-12-07T19:06:41;27.38;;;17.35;;
4428;SDS011;2227;47.810;8.810;2022-12-07T19:09:09;27.55;;;17.23;;
4428;SDS011;2227;47.810;8.810;2022-12-07T19:11:36;25.77;;;15.80;;
4428;SDS011;2227;47.810;8.810;2022-12-07T19:16:44;32.53;;;18.17;;
4428;SDS011;2227;47.810;8.810;2022-12-07T19:19:15;27.17;;;16.35;;
4428;SDS011;2227;47.810;8.810;2022-12-07T19:21:47;26.27;;;14.15;;
4428;SDS011;2227;47.810;8.810;2022-12-07T19:24:14;26.13;;;16.17;;
4428;SDS011;2227;47.810;8.810;2022-12-07T19:26:48;26.65;;;15.55;;
4428;SDS011;2227;47.810;8.810;2022-12-07T19:29:15;31.70;;;17.88;;
4428;SDS011;2227;47.810;8.810;2022-12-07T19:31:42;23.80;;;14.57;;
4428;SDS011;2227;47.810;8.810;2022-12-07T19:34:10;24.20;;;11.43;;
4428;SDS011;2227;47.810;8.810;2022-12-07T19:36:37;22.95;;;13.77;;
4428;SDS011;2227;47.810;8.810;2022-12-07T19:39:05;277.55;;;90.25;;
4428;SDS011;2227;47.810;8.810;2022-12-07T19:41:39;160.23;;;59.13;;
4428;SDS011;2227;47.810;8.810;2022-12-07T19:44:15;46.30;;;23.65;;
4428;SDS011;2227;47.810;8.810;2022-12-07T19:46:45;172.93;;;60.20;;
4428;SDS011;2227;47.810;8.810;2022-12-07T19:49:14;83.13;;;33.75;;
4428;SDS011;2227;47.810;8.810;2022-12-07T19:51:42;49.70;;;22.80;;
4428;SDS011;2227;47.810;8.810;2022-12-07T19:54:10;29.55;;;14.35;;
4428;SDS011;2227;47.810;8.810;2022-12-07T19:56:40;20.88;;;11.10;;
4428;SDS011;2227;47.810;8.810;2022-12-07T19:59:07;22.38;;;10.75;;
4428;SDS011;2227;47.810;8.810;2022-12-07T20:01:35;28.20;;;14.63;;
4428;SDS011;2227;47.810;8.810;2022-12-07T20:04:09;18.50;;;11.55;;
4428;SDS011;2227;47.810;8.810;2022-12-07T20:06:47;15.55;;;8.63;;
4428;SDS011;2227;47.810;8.810;2022-12-07T20:09:16;13.80;;;6.53;;
4428;SDS011;2227;47.810;8.810;2022-12-07T20:11:43;8.63;;;5.28;;
4428;SDS011;2227;47.810;8.810;2022-12-07T20:14:29;8.60;;;5.18;;
4428;SDS011;2227;47.810;8.810;2022-12-07T20:16:56;8.18;;;5.68;;
4428;SDS011;2227;47.810;8.810;2022-12-07T20:19:24;9.77;;;5.63;;
4428;SDS011;2227;47.810;8.810;2022-12-07T20:21:50;12.27;;;7.05;;
4428;SDS011;2227;47.810;8.810;2022-12-07T20:24:18;10.65;;;6.68;;
4428;SDS011;2227;47.810;8.810;2022-12-07T20:26:48;11.60;;;7.07;;
4428;SDS011;2227;47.810;8.810;2022-12-07T20:29:18;12.02;;;6.90;;
4428;SDS011;2227;47.810;8.810;2022-12-07T20:31:47;11.88;;;7.13;;
4428;SDS011;2227;47.810;8.810;2022-12-07T20:34:15;26.05;;;14.05;;
4428;SDS011;2227;47.810;8.810;2022-12-07T20:36:42;18.38;;;11.73;;
4428;SDS011;2227;47.810;8.810;2022-12-07T20:39:09;12.43;;;7.65;;
4428;SDS011;2227;47.810;8.810;2022-12-07T20:41:37;11.23;;;6.85;;
4428;SDS011;2227;47.810;8.810;2022-12-07T20:44:23;11.05;;;6.55;;
4428;SDS011;2227;47.810;8.810;2022-12-07T20:46:50;11.90;;;5.82;;
4428;SDS011;2227;47.810;8.810;2022-12-07T20:49:17;9.60;;;5.95;;
4428;SDS011;2227;47.810;8.810;2022-12-07T20:51:44;10.48;;;5.95;;
4428;SDS011;2227;47.810;8.810;2022-12-07T20:54:12;10.38;;;6.50;;
4428;SDS011;2227;47.810;8.810;2022-12-07T20:56:39;10.27;;;6.38;;
4428;SDS011;2227;47.810;8.810;2022-12-07T20:59:07;11.43;;;5.55;;
4428;SDS011;2227;47.810;8.810;2022-12-07T21:01:35;11.48;;;5.53;;
4428;SDS011;2227;47.810;8.810;2022-12-07T21:04:02;12.13;;;6.20;;
4428;SDS011;2227;47.810;8.810;2022-12-07T21:06:30;15.02;;;6.72;;
4428;SDS011;2227;47.810;8.810;2022-12-07T21:08:57;14.13;;;7.05;;
4428;SDS011;2227;47.810;8.810;2022-12-07T21:11:26;14.90;;;7.13;;
4428;SDS011;2227;47.810;8.810;2022-12-07T21:13:54;13.38;;;6.45;;
4428;SDS011;2227;47.810;8.810;2022-12-07T21:16:22;12.82;;;6.88;;
4428;SDS011;2227;47.810;8.810;2022-12-07T21:18:52;9.77;;;5.10;;
4428;SDS011;2227;47.810;8.810;2022-12-07T21:21:20;7.32;;;3.28;;
4428;SDS011;2227;47.810;8.810;2022-12-07T21:23:47;5.85;;;3.17;;
4428;SDS011;2227;47.810;8.810;2022-12-07T21:26:16;5.22;;;2.95;;
4428;SDS011;2227;47.810;8.810;2022-12-07T21:28:45;8.63;;;3.13;;
4428;SDS011;2227;47.810;8.810;2022-12-07T21:31:13;6.70;;;3.72;;
4428;SDS011;2227;47.810;8.810;2022-12-07T21:33:40;7.30;;;3.78;;
4428;SDS011;2227;47.810;8.810;2022-12-07T21:36:13;6.50;;;3.38;;
4428;SDS011;2227;47.810;8.810;2022-12-07T21:38:42;6.00;;;3.17;;
4428;SDS011;2227;47.810;8.810;2022-12-07T21:41:09;5.70;;;2.95;;
4428;SDS011;2227;47.810;8.810;2022-12-07T21:43:38;6.45;;;3.45;;
4428;SDS011;2227;47.810;8.810;2022-12-07T21:46:05;6.72;;;3.50;;